Terminal Aerodrome Forecast
Issued by NWS Chicago, IL

Home | Current Version | Previous Version | Graphics & Text | Print | Product List | Glossary On
Versions: 1 2 3 4 5 6 7 8 9 10 11 12 13 14 15 16 17 18 19 20 21 22 23 24 25 26 27 28 29 30 31 32 33
000
FTUS43 KLOT 160300 AAA
TAFRFD
TAF AMD
KRFD 160312Z 1603/1624 11008KT 3SM -DZ BR OVC007
      TEMPO 1605/1609 2SM -SHRA OVC004
     FM161500 29011KT 5SM -SHRADZ BR OVC007
     FM161900 31013G22KT P6SM OVC015=

USA.gov is the U.S. government's official web portal to all federal, state and local government web resources and services.